Aviation Digital Data Service (ADDS)

Output produced by TAFs form (0906 UTC 30 August 2016)
found at http://www.aviationweather.gov/adds/tafs/
 
KPOU 300541Z 3006/3106 11003KT P6SM SKC 
     TEMPO 3009/3012 2SM BR SCT003 
     FM301300 VRB03KT P6SM SCT250 
     FM310100 19004KT P6SM FEW250